createdAt,value
2023-01-25T00:00:55.799Z,0.70
2023-01-25T00:03:24.138Z,0.60
2023-01-25T00:06:01.217Z,0.60
2023-01-25T00:08:29.738Z,0.60
2023-01-25T00:10:58.666Z,1.00
2023-01-25T00:13:28.473Z,0.60
2023-01-25T00:16:02.839Z,0.60
2023-01-25T00:18:31.085Z,0.70
2023-01-25T00:20:59.270Z,0.70
2023-01-25T00:23:27.488Z,0.70
2023-01-25T00:25:59.015Z,0.60
2023-01-25T00:28:28.692Z,0.50
2023-01-25T00:31:01.258Z,0.60
2023-01-25T00:33:44.941Z,0.60
2023-01-25T00:36:32.999Z,0.50
2023-01-25T00:39:01.213Z,0.50
2023-01-25T00:41:29.518Z,0.60
2023-01-25T00:43:59.477Z,0.60
2023-01-25T00:46:28.888Z,0.60
2023-01-25T00:48:57.684Z,0.60
2023-01-25T00:51:26.515Z,0.60
2023-01-25T00:53:55.060Z,0.60
2023-01-25T00:56:23.294Z,0.70
2023-01-25T00:58:51.593Z,0.70
2023-01-25T01:01:21.218Z,0.60
2023-01-25T01:03:49.479Z,0.80
2023-01-25T01:06:17.683Z,0.80
2023-01-25T01:08:45.916Z,0.80
2023-01-25T01:11:14.372Z,0.90
2023-01-25T01:13:42.577Z,0.60
2023-01-25T01:16:14.128Z,0.60
2023-01-25T01:18:45.609Z,0.60
2023-01-25T01:21:14.898Z,0.60
2023-01-25T01:23:43.321Z,0.60
2023-01-25T01:26:14.789Z,0.60
2023-01-25T01:28:43.859Z,0.60
2023-01-25T01:31:14.337Z,0.60
2023-01-25T01:33:44.032Z,0.60
2023-01-25T01:36:14.728Z,0.70
2023-01-25T01:38:43.102Z,0.60
2023-01-25T01:41:11.830Z,0.50
2023-01-25T01:43:40.321Z,0.50
2023-01-25T01:46:14.858Z,0.60
2023-01-25T01:48:48.744Z,0.60
2023-01-25T01:51:21.098Z,0.50
2023-01-25T01:53:54.119Z,0.50
2023-01-25T01:56:28.760Z,0.50
2023-01-25T01:58:59.311Z,0.50
2023-01-25T02:01:28.086Z,0.60
2023-01-25T02:03:58.081Z,0.60
2023-01-25T02:06:35.681Z,0.60
2023-01-25T02:09:04.351Z,0.50
2023-01-25T02:11:34.390Z,0.70
2023-01-25T02:14:04.023Z,0.70
2023-01-25T02:19:03.789Z,0.50
2023-01-25T02:21:40.133Z,0.60
2023-01-25T06:03:06.170Z,0.50
2023-01-25T06:08:02.939Z,0.60
2023-01-25T06:10:31.337Z,0.70
2023-01-25T06:13:01.205Z,0.80
2023-01-25T06:15:29.398Z,0.80
2023-01-25T06:17:57.886Z,0.70
2023-01-25T06:20:26.183Z,0.70
2023-01-25T06:22:55.023Z,0.70
2023-01-25T06:25:23.387Z,0.60
2023-01-25T06:27:51.592Z,0.70
2023-01-25T06:30:21.407Z,0.60
2023-01-25T06:32:50.518Z,0.70
2023-01-25T06:35:18.905Z,0.60
2023-01-25T06:37:47.280Z,0.60
2023-01-25T06:40:15.786Z,0.50
2023-01-25T06:42:45.301Z,0.40
2023-01-25T06:45:13.556Z,0.50
2023-01-25T06:47:43.166Z,0.50
2023-01-25T06:50:11.904Z,0.50
2023-01-25T06:52:40.138Z,0.50
2023-01-25T06:55:13.825Z,0.50
2023-01-25T06:57:42.037Z,0.40
2023-01-25T07:00:11.516Z,0.60
2023-01-25T07:02:39.815Z,0.50
2023-01-25T07:12:37.113Z,0.50
2023-01-25T07:15:06.037Z,0.50
2023-01-25T07:17:34.416Z,0.30
2023-01-25T07:20:03.181Z,0.30
2023-01-25T07:22:32.929Z,0.30
2023-01-25T07:25:02.274Z,0.40
2023-01-25T07:27:33.856Z,0.40
2023-01-25T07:30:03.164Z,0.70
2023-01-25T07:32:31.642Z,0.70
2023-01-25T07:34:59.994Z,0.60
2023-01-25T07:37:28.335Z,0.70
2023-01-25T07:39:58.368Z,0.50
2023-01-25T07:42:26.604Z,0.40
2023-01-25T07:44:55.009Z,0.70
2023-01-25T07:47:23.242Z,0.50
2023-01-25T07:49:51.555Z,0.70
2023-01-25T07:52:19.810Z,0.90
2023-01-25T07:54:49.847Z,0.70
2023-01-25T07:57:20.459Z,0.70
2023-01-25T07:59:49.923Z,0.70
2023-01-25T08:02:18.241Z,0.80
2023-01-25T08:04:46.702Z,0.90
2023-01-25T08:07:15.814Z,0.90
2023-01-25T08:09:44.005Z,1.00
2023-01-25T08:12:12.663Z,1.00
2023-01-25T08:14:42.455Z,1.00
2023-01-25T08:17:11.280Z,1.30
2023-01-25T08:19:39.892Z,1.50
2023-01-25T08:22:09.174Z,0.70
2023-01-25T08:24:37.422Z,1.10
2023-01-25T08:27:05.702Z,1.10
2023-01-25T08:29:33.945Z,1.10
2023-01-25T08:32:06.244Z,1.20
2023-01-25T08:34:34.587Z,1.20
2023-01-25T08:37:03.211Z,1.20
2023-01-25T08:39:31.557Z,1.20
2023-01-25T08:42:00.051Z,1.20
2023-01-25T08:44:28.611Z,1.20
2023-01-25T08:46:56.865Z,1.30
2023-01-25T08:49:27.682Z,1.40
2023-01-25T08:51:55.949Z,1.30
2023-01-25T08:54:24.514Z,1.30
2023-01-25T08:56:52.749Z,1.30
2023-01-25T08:59:20.949Z,1.40
2023-01-25T09:01:49.145Z,1.40
2023-01-25T09:04:17.362Z,1.40
2023-01-25T09:06:47.069Z,1.40
2023-01-25T09:09:15.410Z,1.40
2023-01-25T09:11:43.686Z,1.40
2023-01-25T09:14:12.020Z,1.40
2023-01-25T09:16:40.211Z,1.40
2023-01-25T09:19:08.415Z,1.50
2023-01-25T09:21:37.249Z,1.50
2023-01-25T09:24:08.333Z,1.60
2023-01-25T09:26:38.814Z,1.90
2023-01-25T09:29:08.790Z,1.80
2023-01-25T09:31:40.404Z,1.80
2023-01-25T09:34:09.002Z,1.80
2023-01-25T09:36:37.914Z,1.80
2023-01-25T09:39:07.927Z,1.90
2023-01-25T09:44:23.262Z,2.10
2023-01-25T09:46:54.329Z,2.20
2023-01-25T09:49:40.454Z,2.20
2023-01-25T09:52:30.139Z,2.20
2023-01-25T09:55:00.100Z,2.20
2023-01-25T09:57:32.127Z,2.30
2023-01-25T10:00:05.622Z,2.40
2023-01-25T10:02:42.176Z,2.40
2023-01-25T10:05:16.557Z,2.40
2023-01-25T10:07:54.745Z,2.50
2023-01-25T10:10:31.362Z,2.60
2023-01-25T10:12:59.665Z,2.70
2023-01-25T10:15:37.102Z,2.80
2023-01-25T10:18:18.369Z,2.90
2023-01-25T10:20:51.119Z,3.10
2023-01-25T10:23:42.913Z,3.10
2023-01-25T10:26:20.988Z,3.10
2023-01-25T10:28:54.368Z,3.20
2023-01-25T10:31:29.509Z,3.20
2023-01-25T10:33:59.719Z,3.30
2023-01-25T10:36:31.642Z,3.20
2023-01-25T10:39:01.739Z,3.20
2023-01-25T10:41:40.891Z,3.20
2023-01-25T10:44:25.913Z,3.40
2023-01-25T10:47:00.744Z,3.40
2023-01-25T10:49:33.759Z,3.60
2023-01-25T10:52:15.197Z,3.50
2023-01-25T10:54:43.720Z,3.20
2023-01-25T10:57:18.683Z,3.40
2023-01-25T10:59:51.234Z,3.50
2023-01-25T11:02:46.149Z,3.60
2023-01-25T11:05:34.506Z,3.70
2023-01-25T11:08:24.333Z,3.70
2023-01-25T11:10:53.951Z,3.70
2023-01-25T11:13:26.887Z,3.70
2023-01-25T11:15:56.963Z,3.80
2023-01-25T11:18:28.599Z,3.80
2023-01-25T11:21:06.943Z,3.60
2023-01-25T11:23:35.477Z,3.50
2023-01-25T11:26:15.643Z,3.50
2023-01-25T11:28:49.032Z,3.60
2023-01-25T11:31:19.797Z,3.50
2023-01-25T11:33:48.210Z,3.40
2023-01-25T11:36:27.004Z,3.50
2023-01-25T11:39:09.564Z,3.30
2023-01-25T11:41:50.339Z,3.30
2023-01-25T11:44:43.493Z,3.20
2023-01-25T11:47:24.554Z,3.50
2023-01-25T11:50:03.085Z,3.70
2023-01-25T11:52:45.646Z,3.70
2023-01-25T11:55:26.298Z,3.70
2023-01-25T16:21:17.350Z,2.10
2023-01-25T21:41:15.476Z,1.60
2023-01-25T23:01:36.407Z,1.40
2023-01-25T23:16:52.582Z,1.30
2023-01-25T23:19:21.146Z,1.30
2023-01-25T23:21:49.357Z,1.30
2023-01-25T23:24:17.602Z,1.30
2023-01-25T23:26:46.618Z,1.30
2023-01-25T23:29:15.257Z,1.30
2023-01-25T23:31:43.527Z,1.30
2023-01-25T23:34:12.870Z,1.30
2023-01-25T23:36:42.555Z,1.20
2023-01-25T23:39:13.151Z,1.00
2023-01-25T23:41:41.564Z,1.20
2023-01-25T23:44:10.257Z,1.30
2023-01-25T23:46:38.548Z,1.20
2023-01-25T23:49:06.878Z,1.30
2023-01-25T23:51:35.131Z,1.30
2023-01-25T23:56:33.286Z,1.80
2023-01-25T23:59:01.569Z,1.30
